Metar Aviation Weather Data EGAC George Best Belfast City

10°C Temp
7°C Dewpoint
82% Humidity
Temperature
16 KM/H
10 MPH
9 KTS
200°
South South
West

Wind Speed
Partly Cloudy
Conditions
Pressure 1035 (hPa) - 30.56 (in)
Visibility 6.2 (mi) - 10 (km)

Current Conditions
EGAC
George Best Belfast City
Metar :EGAC 222120Z AUTO 20009KT 160V250 9999 FEW025/// 10/07 Q1035
Mon 22nd October 22:20 pm

George Best Belfast City
  Metar Aviation API Data Provided by https://www.checkwx.com/ PHP scripts by weather34.com ©2018